KHAE

Hannibal Regional Airport

Hannibal, Missouri, USA
METAR KHAE 190635Z AUTO 22011G18KT 10SM CLR 02/M08 A3003 RMK AO2
Observed Flight Rules
Jan-19 @ 06:35 UTC (34 minutes ago) Visual Flight Rules
Wind Visibility Clouds
220° at 11 knots
 Gusting to 18 knots
10 miles
  • Clear skies
Temperatures Readings
Current 2°C / 36°F
Dewpoint -8°C / 18°F
Humidity 48%
Altimeter 30.03" Hg
Pressure 1017 hPa
Elevation 234
METAR KHAE 190635Z AUTO 22011G18KT 10SM CLR 02/M08 A3003 RMK AO2
Observed Flight Rules
Jan-19 @ 06:35 UTC
(34 minutes ago)
VFR
Wind Visibility
220° at 11 knots
 Gusting to 18 knots
10 miles
Clouds
  • Clear skies
Temperature Dewpoint
2°C / 36°F -8°C / 18°F
Humidity Altimeter Pressure
48% 30.03" Hg 1017 hPa